Pittsburgh, Pennsylvania
Traffic Map
Current Weather Conditions
Pittsburgh, Pennsylvania
Overcast Light Rain
Overcast
53°
Feels Like: 53°
Wind Chill: 53° Ceiling: 7000
Heat Index: 53° Visibility: 10mi
Dew Point: 47° Wind: 3mph
Humidity: 80% Direction: 90° (E)
Pressure: 29.63in Gusts: 0mph
Raw Report DataKAGC 042253Z AUTO 09003KT 10SM -RA SCT055 BKN070 OVC085 12/08 A2963 RMK AO2 SLP039 P0005 T01170083 TSNO
Traffic Incident Summary
Active as of:
Severity:
Category:
InformationThere was an issue retrieving the traffic information for this location. Please try a different location or try again shortly.
Advertisements
Track Severe Weather on mobile